createdAt,value
2023-01-02T00:01:05.570Z,0.40
2023-01-02T00:03:31.717Z,0.52
2023-01-02T00:05:57.921Z,0.73
2023-01-02T00:08:24.009Z,0.45
2023-01-02T00:10:52.884Z,0.57
2023-01-02T00:13:19.276Z,0.40
2023-01-02T00:15:45.375Z,0.60
2023-01-02T00:18:11.502Z,0.50
2023-01-02T00:20:37.653Z,0.50
2023-01-02T00:23:03.724Z,0.60
2023-01-02T00:25:29.843Z,0.52
2023-01-02T00:27:56.127Z,0.70
2023-01-02T00:30:22.221Z,0.60
2023-01-02T00:32:48.330Z,0.57
2023-01-02T00:35:14.488Z,0.40
2023-01-02T00:37:40.528Z,0.50
2023-01-02T00:40:07.351Z,0.50
2023-01-02T00:42:33.416Z,0.68
2023-01-02T00:44:59.514Z,0.80
2023-01-02T00:47:25.627Z,0.70
2023-01-02T00:49:51.680Z,0.60
2023-01-02T00:52:17.792Z,0.70
2023-01-02T00:54:43.929Z,0.50
2023-01-02T00:57:10.138Z,0.60
2023-01-02T00:59:36.286Z,0.68
2023-01-02T01:02:02.535Z,0.55
2023-01-02T01:04:31.564Z,0.80
2023-01-02T01:06:57.637Z,0.88
2023-01-02T01:09:23.735Z,0.40
2023-01-02T01:11:49.801Z,0.60
2023-01-02T01:14:15.951Z,0.63
2023-01-02T01:16:42.299Z,0.60
2023-01-02T01:19:08.792Z,0.45
2023-01-02T01:21:35.284Z,0.65
2023-01-02T01:24:01.477Z,0.50
2023-01-02T01:26:27.549Z,0.50
2023-01-02T01:28:55.281Z,0.63
2023-01-02T01:31:22.841Z,0.70
2023-01-02T01:33:49.507Z,0.50
2023-01-02T01:36:17.927Z,0.60
2023-01-02T01:38:44.790Z,0.60
2023-01-02T01:41:19.507Z,0.50
2023-01-02T01:43:50.774Z,0.50
2023-01-02T01:46:36.241Z,0.40
2023-01-02T01:49:09.153Z,0.40
2023-01-02T01:51:39.886Z,0.52
2023-01-02T01:54:09.707Z,0.40
2023-01-02T01:56:40.364Z,0.50
2023-01-02T01:59:09.133Z,0.63
2023-01-02T02:01:35.688Z,0.65
2023-01-02T02:04:02.430Z,0.40
2023-01-02T02:06:29.096Z,0.55
2023-01-02T02:09:00.126Z,0.40
2023-01-02T02:11:27.468Z,0.55
2023-01-02T02:13:59.783Z,0.55
2023-01-02T02:17:03.523Z,0.40
2023-01-02T02:19:51.388Z,0.45
2023-01-02T02:23:01.231Z,0.47
2023-01-02T02:25:58.084Z,0.63
2023-01-02T02:28:57.939Z,0.60
2023-01-02T02:31:50.364Z,0.47
2023-01-02T02:34:27.162Z,0.50
2023-01-02T02:37:00.642Z,0.50
2023-01-02T02:39:51.540Z,0.40
2023-01-02T02:42:38.345Z,0.73
2023-01-02T02:45:15.614Z,0.93
2023-01-02T02:47:59.538Z,0.52
2023-01-02T02:50:49.201Z,0.60
2023-01-02T02:53:24.400Z,0.40
2023-01-02T02:55:53.734Z,0.40
2023-01-02T02:58:22.864Z,0.65
2023-01-02T03:00:49.132Z,0.52
2023-01-02T03:03:23.095Z,0.57
2023-01-02T03:06:15.423Z,0.50
2023-01-02T03:09:09.394Z,0.45
2023-01-02T03:12:14.647Z,0.50
2023-01-02T03:14:53.912Z,0.40
2023-01-02T03:17:31.832Z,0.50
2023-01-02T03:20:05.829Z,0.60
2023-01-02T03:22:37.624Z,0.57
2023-01-02T03:25:05.802Z,1.08
2023-01-02T03:27:35.810Z,0.50
2023-01-02T03:30:06.367Z,0.30
2023-01-02T03:32:51.454Z,0.50
2023-01-02T03:35:24.236Z,0.40
2023-01-02T03:37:54.283Z,0.60
2023-01-02T03:40:34.410Z,0.55
2023-01-02T03:43:21.278Z,0.38
2023-01-02T03:46:13.474Z,0.50
2023-01-02T03:48:45.532Z,0.47
2023-01-02T03:51:11.931Z,0.40
2023-01-02T03:53:39.477Z,0.50
2023-01-02T03:56:24.345Z,0.50
2023-01-02T03:58:59.466Z,0.63
2023-01-02T04:01:54.966Z,0.47
2023-01-02T04:04:46.840Z,0.43
2023-01-02T04:07:26.769Z,0.38
2023-01-02T04:09:53.493Z,0.30
2023-01-02T04:12:23.455Z,0.50
2023-01-02T04:14:54.924Z,0.68
2023-01-02T04:17:22.564Z,0.57
2023-01-02T04:19:54.780Z,0.40
2023-01-02T04:22:26.302Z,0.47
2023-01-02T04:25:03.255Z,0.32
2023-01-02T04:27:35.289Z,0.70
2023-01-02T04:30:01.584Z,0.50
2023-01-02T04:32:43.470Z,0.60
2023-01-02T04:35:13.752Z,0.60
2023-01-02T04:37:42.469Z,0.47
2023-01-02T04:40:19.275Z,0.68
2023-01-02T04:42:45.632Z,0.50
2023-01-02T04:45:12.260Z,0.60
2023-01-02T04:47:38.409Z,0.50
2023-01-02T04:50:06.178Z,0.60
2023-01-02T04:52:36.903Z,0.60
2023-01-02T04:55:04.941Z,0.57
2023-01-02T04:57:31.384Z,0.57
2023-01-02T04:59:57.449Z,0.60
2023-01-02T05:02:23.586Z,0.68
2023-01-02T05:04:49.712Z,0.70
2023-01-02T05:07:15.796Z,0.55
2023-01-02T05:09:41.891Z,0.50
2023-01-02T05:12:07.995Z,1.95
2023-01-02T05:14:34.086Z,0.65
2023-01-02T05:17:00.195Z,0.60
2023-01-02T05:19:26.252Z,0.70
2023-01-02T05:22:11.068Z,0.63
2023-01-02T05:24:37.134Z,0.70
2023-01-02T05:27:03.394Z,0.73
2023-01-02T05:29:29.478Z,0.50
2023-01-02T05:31:55.541Z,0.85
2023-01-02T05:34:21.610Z,0.80
2023-01-02T05:36:47.684Z,0.70
2023-01-02T05:39:13.872Z,0.60
2023-01-02T05:41:41.315Z,0.60
2023-01-02T05:44:09.300Z,0.63
2023-01-02T05:46:36.539Z,0.95
2023-01-02T05:49:07.459Z,0.60
2023-01-02T05:51:33.666Z,0.70
2023-01-02T05:54:00.054Z,0.80
2023-01-02T05:56:27.657Z,0.73
2023-01-02T05:58:53.853Z,0.60
2023-01-02T06:01:23.306Z,0.65
2023-01-02T06:03:51.511Z,0.60
2023-01-02T06:06:20.607Z,0.60
2023-01-02T06:08:46.781Z,0.60
2023-01-02T06:11:13.005Z,0.52
2023-01-02T06:13:39.522Z,0.68
2023-01-02T06:16:08.152Z,0.50
2023-01-02T06:18:35.752Z,0.50
2023-01-02T06:21:04.595Z,0.52
2023-01-02T06:23:30.751Z,0.57
2023-01-02T06:26:02.360Z,0.55
2023-01-02T06:28:28.422Z,0.70
2023-01-02T06:30:59.317Z,1.27
2023-01-02T06:33:25.371Z,1.00
2023-01-02T06:36:02.968Z,0.70
2023-01-02T06:38:29.337Z,0.68
2023-01-02T06:40:58.267Z,1.10
2023-01-02T06:43:25.303Z,1.92
2023-01-02T06:45:51.837Z,1.13
2023-01-02T06:48:18.523Z,1.45
2023-01-02T06:50:45.245Z,1.27
2023-01-02T06:53:12.542Z,2.45
2023-01-02T06:55:39.067Z,1.02
2023-01-02T06:58:11.151Z,1.92
2023-01-02T07:00:38.487Z,1.25
2023-01-02T07:03:04.632Z,1.38
2023-01-02T07:05:30.700Z,1.60
2023-01-02T07:07:56.807Z,1.50
2023-01-02T07:10:22.919Z,1.23
2023-01-02T07:12:48.973Z,1.35
2023-01-02T07:15:15.439Z,2.03
2023-01-02T07:17:41.498Z,1.35
2023-01-02T07:20:08.173Z,1.50
2023-01-02T07:22:34.267Z,1.40
2023-01-02T07:25:01.146Z,2.00
2023-01-02T07:27:32.212Z,1.85
2023-01-02T07:29:58.540Z,1.60
2023-01-02T07:32:27.548Z,2.22
2023-01-02T07:34:53.789Z,2.95
2023-01-02T07:37:20.041Z,1.50
2023-01-02T07:39:46.153Z,1.70
2023-01-02T07:42:12.267Z,2.22
2023-01-02T07:44:38.379Z,2.28
2023-01-02T07:47:04.466Z,2.72
2023-01-02T07:49:30.586Z,2.05
2023-01-02T07:51:56.670Z,2.67
2023-01-02T07:54:22.735Z,2.15
2023-01-02T07:56:48.818Z,1.95
2023-01-02T07:59:14.938Z,2.05
2023-01-02T08:01:41.170Z,1.48
2023-01-02T08:04:07.394Z,1.98
2023-01-02T08:06:33.714Z,1.92
2023-01-02T08:08:59.778Z,2.22
2023-01-02T08:11:25.830Z,1.80
2023-01-02T08:13:51.915Z,1.77
2023-01-02T08:16:20.490Z,2.15
2023-01-02T08:18:47.514Z,2.55
2023-01-02T08:21:14.936Z,1.50
2023-01-02T08:23:41.039Z,1.58
2023-01-02T08:26:08.987Z,1.67
2023-01-02T08:28:36.143Z,1.58
2023-01-02T08:31:08.518Z,3.47
2023-01-02T08:33:34.643Z,2.75
2023-01-02T08:36:01.298Z,2.30
2023-01-02T08:38:27.393Z,1.40
2023-01-02T08:40:53.456Z,1.65
2023-01-02T08:43:19.617Z,2.33
2023-01-02T08:45:45.809Z,1.23
2023-01-02T08:48:20.940Z,2.08
2023-01-02T08:50:49.242Z,1.85
2023-01-02T08:53:15.462Z,2.90
2023-01-02T08:55:41.583Z,3.13
2023-01-02T08:58:07.649Z,1.52
2023-01-02T09:00:33.732Z,2.50
2023-01-02T09:02:59.999Z,1.77
2023-01-02T09:05:30.150Z,2.72
2023-01-02T09:07:57.282Z,1.80
2023-01-02T09:10:23.567Z,2.40
2023-01-02T09:12:49.641Z,1.65
2023-01-02T09:15:17.784Z,1.75
2023-01-02T09:17:43.884Z,1.67
2023-01-02T09:20:10.272Z,1.55
2023-01-02T09:22:36.542Z,3.20
2023-01-02T09:25:03.839Z,1.50
2023-01-02T09:27:29.889Z,2.42
2023-01-02T09:29:55.952Z,1.88
2023-01-02T09:32:22.087Z,2.42
2023-01-02T09:34:49.842Z,1.77
2023-01-02T09:37:16.950Z,2.05
2023-01-02T09:39:43.296Z,3.28
2023-01-02T09:42:14.519Z,1.90
2023-01-02T09:44:55.461Z,2.50
2023-01-02T09:47:25.728Z,1.17
2023-01-02T09:50:00.009Z,1.13
2023-01-02T09:52:31.863Z,2.05
2023-01-02T09:54:58.771Z,3.13
2023-01-02T09:57:27.811Z,2.03
2023-01-02T10:00:18.370Z,2.22
2023-01-02T10:02:52.543Z,2.08
2023-01-02T10:05:53.830Z,1.50
2023-01-02T10:08:41.344Z,1.98
2023-01-02T10:11:26.370Z,1.75
2023-01-02T10:16:45.591Z,2.90
2023-01-02T10:19:20.859Z,1.30
2023-01-02T10:21:49.104Z,2.15
2023-01-02T10:24:37.969Z,2.80
2023-01-02T10:27:10.997Z,3.30
2023-01-02T10:29:47.003Z,1.58
2023-01-02T10:32:16.790Z,2.25
2023-01-02T10:35:06.409Z,1.42
2023-01-02T10:37:33.973Z,2.58
2023-01-02T10:40:00.189Z,1.08
2023-01-02T10:42:26.500Z,2.15
2023-01-02T10:44:52.852Z,5.53
2023-01-02T10:47:22.305Z,4.35
2023-01-02T10:49:51.537Z,1.83
2023-01-02T10:52:34.008Z,1.88
2023-01-02T10:55:01.167Z,2.65
2023-01-02T10:57:42.009Z,2.83
2023-01-02T11:00:29.955Z,2.78
2023-01-02T11:02:59.610Z,4.20
2023-01-02T11:05:28.845Z,2.08
2023-01-02T11:07:57.180Z,1.67
2023-01-02T11:10:33.105Z,1.80
2023-01-02T11:13:04.371Z,1.73
2023-01-02T11:15:33.932Z,2.10
2023-01-02T11:18:01.949Z,2.70
2023-01-02T11:20:34.759Z,1.77
2023-01-02T11:23:03.603Z,2.20
2023-01-02T11:25:39.334Z,3.80
2023-01-02T11:28:06.180Z,2.67
2023-01-02T11:30:47.623Z,2.28
2023-01-02T11:33:13.689Z,2.38
2023-01-02T11:35:47.760Z,3.05
2023-01-02T11:38:29.878Z,3.95
2023-01-02T11:41:01.743Z,2.17
2023-01-02T11:43:48.988Z,1.55
2023-01-02T11:46:22.997Z,2.50
2023-01-02T11:48:52.196Z,1.58
2023-01-02T11:51:19.866Z,1.55
2023-01-02T11:53:50.782Z,4.00
2023-01-02T11:56:39.053Z,3.45
2023-01-02T11:59:18.789Z,1.98
2023-01-02T12:01:58.837Z,2.10
2023-01-02T12:04:25.318Z,2.17
2023-01-02T12:07:22.176Z,2.45
2023-01-02T12:09:57.293Z,2.25
2023-01-02T12:12:38.474Z,2.20
2023-01-02T12:15:07.495Z,1.27
2023-01-02T12:17:46.257Z,2.42
2023-01-02T12:20:30.757Z,1.90
2023-01-02T12:23:20.076Z,1.92
2023-01-02T12:25:58.407Z,1.60
2023-01-02T12:28:40.662Z,2.60
2023-01-02T12:31:43.066Z,3.13
2023-01-02T12:34:29.223Z,3.45
2023-01-02T12:37:19.891Z,3.28
2023-01-02T12:40:13.987Z,2.10
2023-01-02T12:42:58.334Z,1.65
2023-01-02T12:45:47.889Z,2.10
2023-01-02T12:48:56.045Z,2.13
2023-01-02T12:51:49.230Z,2.42
2023-01-02T12:54:42.563Z,1.85
2023-01-02T12:57:22.509Z,2.78
2023-01-02T13:00:14.592Z,2.30
2023-01-02T13:02:52.982Z,4.50
2023-01-02T13:05:27.991Z,1.90
2023-01-02T13:08:02.879Z,5.45
2023-01-02T13:10:29.588Z,3.55
2023-01-02T13:12:57.132Z,2.60
2023-01-02T13:15:27.393Z,2.88
2023-01-02T13:18:08.224Z,3.38
2023-01-02T13:20:40.417Z,2.22
2023-01-02T13:23:31.134Z,2.53
2023-01-02T13:26:05.168Z,1.75
2023-01-02T13:28:31.575Z,2.85
2023-01-02T13:31:45.243Z,2.40
2023-01-02T13:34:31.078Z,2.85
2023-01-02T13:37:09.386Z,3.25
2023-01-02T13:39:41.531Z,3.15
2023-01-02T13:42:40.801Z,2.45
2023-01-02T13:45:37.114Z,2.38
2023-01-02T13:48:07.034Z,2.53
2023-01-02T13:50:35.135Z,4.18
2023-01-02T13:53:04.098Z,2.75
2023-01-02T13:55:54.893Z,2.10
2023-01-02T13:58:25.053Z,2.60
2023-01-02T14:00:56.434Z,2.17
2023-01-02T14:03:22.994Z,2.05
2023-01-02T14:06:01.156Z,2.38
2023-01-02T14:08:31.757Z,1.80
2023-01-02T14:11:25.028Z,2.22
2023-01-02T14:13:53.330Z,1.83
2023-01-02T14:16:22.323Z,2.95
2023-01-02T14:19:14.786Z,2.30
2023-01-02T14:21:58.511Z,2.65
2023-01-02T14:24:30.564Z,2.35
2023-01-02T14:27:00.450Z,2.20
2023-01-02T14:29:28.632Z,2.30
2023-01-02T14:32:06.076Z,3.55
2023-01-02T14:34:33.588Z,3.30
2023-01-02T14:37:01.961Z,2.65
2023-01-02T14:39:32.978Z,2.15
2023-01-02T14:42:40.572Z,2.38
2023-01-02T14:45:11.265Z,2.10
2023-01-02T14:47:43.939Z,2.38
2023-01-02T14:50:27.527Z,2.00
2023-01-02T14:53:20.778Z,4.50
2023-01-02T14:55:49.985Z,2.47
2023-01-02T14:58:22.790Z,1.67
2023-01-02T15:00:49.554Z,1.90
2023-01-02T15:03:30.264Z,2.70
2023-01-02T15:06:04.392Z,2.30
2023-01-02T15:08:40.645Z,2.03
2023-01-02T15:11:40.241Z,2.90
2023-01-02T15:14:17.806Z,1.83
2023-01-02T15:16:54.397Z,2.42
2023-01-02T15:19:27.967Z,1.80
2023-01-02T15:21:54.819Z,2.45
2023-01-02T15:24:24.654Z,2.38
2023-01-02T15:26:51.002Z,1.90
2023-01-02T15:29:27.975Z,1.90
2023-01-02T15:31:59.039Z,2.45
2023-01-02T15:34:30.331Z,2.17
2023-01-02T15:37:03.938Z,4.75
2023-01-02T15:39:34.842Z,1.42
2023-01-02T15:42:06.617Z,1.23
2023-01-02T15:44:56.910Z,1.58
2023-01-02T15:47:27.925Z,1.85
2023-01-02T15:49:55.956Z,1.95
2023-01-02T15:52:25.697Z,2.10
2023-01-02T15:54:52.672Z,2.58
2023-01-02T15:57:24.390Z,1.30
2023-01-02T15:59:50.463Z,1.70
2023-01-02T16:02:41.493Z,1.88
2023-01-02T16:05:12.721Z,1.38
2023-01-02T16:07:39.744Z,0.95
2023-01-02T16:10:14.659Z,2.20
2023-01-02T16:12:41.097Z,0.95
2023-01-02T16:15:08.039Z,1.05
2023-01-02T16:17:36.884Z,1.30
2023-01-02T16:20:03.192Z,0.75
2023-01-02T16:22:51.195Z,0.47
2023-01-02T16:25:19.459Z,1.02
2023-01-02T16:27:58.582Z,1.13
2023-01-02T16:30:41.140Z,1.98
2023-01-02T16:33:29.677Z,0.73
2023-01-02T16:36:05.445Z,0.32
2023-01-02T16:38:52.510Z,0.50
2023-01-02T16:41:33.860Z,0.45
2023-01-02T16:44:01.223Z,0.75
2023-01-02T16:46:28.934Z,0.22
2023-01-02T16:48:59.803Z,1.92
2023-01-02T16:51:31.187Z,0.50
2023-01-02T16:53:57.291Z,1.50
2023-01-02T16:56:23.352Z,0.30
2023-01-02T16:58:49.630Z,0.30
2023-01-02T17:01:17.405Z,0.40
2023-01-02T17:03:44.892Z,0.30
2023-01-02T17:06:13.430Z,0.30
2023-01-02T17:08:40.000Z,0.60
2023-01-02T17:11:06.714Z,0.40
2023-01-02T17:13:32.840Z,0.22
2023-01-02T17:15:58.956Z,0.32
2023-01-02T17:18:25.234Z,0.28
2023-01-02T17:20:51.768Z,0.82
2023-01-02T17:23:18.962Z,0.63
2023-01-02T17:25:45.644Z,0.35
2023-01-02T17:28:12.100Z,0.80
2023-01-02T17:30:41.354Z,0.43
2023-01-02T17:33:07.510Z,0.20
2023-01-02T17:35:34.596Z,0.30
2023-01-02T17:38:01.084Z,0.20
2023-01-02T17:40:27.400Z,0.10
2023-01-02T17:42:53.569Z,0.30
2023-01-02T17:45:19.878Z,0.40
2023-01-02T17:48:01.121Z,0.25
2023-01-02T17:50:28.580Z,0.30
2023-01-02T17:52:54.727Z,0.40
2023-01-02T17:55:20.790Z,0.25
2023-01-02T17:57:46.831Z,0.20
2023-01-02T18:00:14.368Z,0.10
2023-01-02T18:02:41.437Z,0.25
2023-01-02T18:05:08.872Z,0.60
2023-01-02T18:07:35.059Z,0.30
2023-01-02T18:10:09.082Z,0.43
2023-01-02T18:12:37.803Z,0.20
2023-01-02T18:15:10.805Z,0.43
2023-01-02T18:17:36.884Z,0.25
2023-01-02T18:20:09.901Z,0.35
2023-01-02T18:22:36.052Z,0.30
2023-01-02T18:25:20.124Z,0.57
2023-01-02T18:27:47.773Z,0.52
2023-01-02T18:30:22.766Z,0.82
2023-01-02T18:32:52.200Z,0.52
2023-01-02T18:38:25.413Z,0.20
2023-01-02T18:40:52.622Z,0.30
2023-01-02T18:43:32.047Z,0.73
2023-01-02T18:46:01.968Z,0.63
2023-01-02T18:48:28.171Z,0.47
2023-01-02T18:50:59.771Z,0.22
2023-01-02T18:53:29.715Z,0.50
2023-01-02T18:56:12.800Z,0.85
2023-01-02T18:58:43.407Z,0.35
2023-01-02T19:01:31.020Z,0.35
2023-01-02T19:04:17.531Z,0.32
2023-01-02T19:06:50.601Z,0.40
2023-01-02T19:09:22.802Z,0.35
2023-01-02T19:12:39.072Z,0.20
2023-01-02T19:15:41.725Z,0.20
2023-01-02T19:18:20.638Z,0.40
2023-01-02T19:20:52.349Z,0.38
2023-01-02T19:23:48.113Z,0.63
2023-01-02T19:26:28.737Z,0.60
2023-01-02T19:28:59.196Z,0.50
2023-01-02T19:31:34.545Z,0.88
2023-01-02T19:34:01.559Z,0.50
2023-01-02T19:36:36.089Z,0.40
2023-01-02T19:39:29.529Z,0.40
2023-01-02T19:42:13.943Z,0.43
2023-01-02T19:44:40.007Z,0.70
2023-01-02T19:47:06.139Z,0.43
2023-01-02T19:49:32.414Z,0.40
2023-01-02T19:51:58.699Z,0.38
2023-01-02T19:54:24.772Z,0.63
2023-01-02T19:56:50.915Z,0.50
2023-01-02T19:59:16.979Z,0.40
2023-01-02T20:01:43.201Z,0.35
2023-01-02T20:04:09.413Z,0.30
2023-01-02T20:06:35.809Z,0.30
2023-01-02T20:09:02.001Z,0.30
2023-01-02T20:11:46.772Z,0.40
2023-01-02T20:14:12.865Z,0.47
2023-01-02T20:16:38.956Z,0.80
2023-01-02T20:19:05.029Z,0.40
2023-01-02T20:21:31.140Z,0.90
2023-01-02T20:23:57.611Z,0.20
2023-01-02T20:26:23.705Z,0.30
2023-01-02T20:28:49.919Z,0.70
2023-01-02T20:31:16.080Z,0.80
2023-01-02T20:33:42.168Z,0.50
2023-01-02T20:36:13.724Z,0.55
2023-01-02T20:38:40.165Z,0.55
2023-01-02T20:41:06.277Z,0.55
2023-01-02T20:43:32.358Z,0.50
2023-01-02T20:45:58.432Z,0.50
2023-01-02T20:48:24.626Z,0.50
2023-01-02T20:50:50.699Z,0.70
2023-01-02T20:53:16.925Z,0.60
2023-01-02T20:55:43.102Z,0.45
2023-01-02T20:58:09.230Z,0.50
2023-01-02T21:00:35.395Z,0.40
2023-01-02T21:03:01.735Z,0.50
2023-01-02T21:05:28.135Z,0.50
2023-01-02T21:07:54.332Z,0.73
2023-01-02T21:10:20.490Z,0.60
2023-01-02T21:13:05.114Z,0.40
2023-01-02T21:15:48.579Z,0.50
2023-01-02T21:18:25.800Z,0.50
2023-01-02T21:21:07.290Z,0.63
2023-01-02T21:23:36.804Z,0.77
2023-01-02T21:26:04.821Z,0.55
2023-01-02T21:28:31.414Z,0.93
2023-01-02T21:30:58.115Z,0.77
2023-01-02T21:33:25.525Z,0.50
2023-01-02T21:35:53.294Z,0.45
2023-01-02T21:38:21.010Z,0.70
2023-01-02T21:40:47.115Z,1.10
2023-01-02T21:43:13.410Z,0.98
2023-01-02T21:45:39.773Z,0.60
2023-01-02T21:48:06.651Z,0.77
2023-01-02T21:50:32.833Z,1.10
2023-01-02T21:52:59.250Z,1.45
2023-01-02T21:55:25.742Z,0.85
2023-01-02T21:58:14.438Z,0.70
2023-01-02T22:00:41.335Z,0.70
2023-01-02T22:03:07.652Z,0.95
2023-01-02T22:05:33.904Z,0.50
2023-01-02T22:08:00.058Z,0.73
2023-01-02T22:10:26.768Z,0.77
2023-01-02T22:12:52.871Z,0.77
2023-01-02T22:15:18.960Z,0.63
2023-01-02T22:17:45.034Z,0.60
2023-01-02T22:20:11.490Z,0.70
2023-01-02T22:22:38.116Z,0.70
2023-01-02T22:25:05.028Z,0.82
2023-01-02T22:27:31.192Z,0.63
2023-01-02T22:32:45.224Z,1.02
2023-01-02T22:35:11.497Z,1.15
2023-01-02T22:37:37.615Z,0.70
2023-01-02T22:40:04.089Z,0.98
2023-01-02T22:43:06.599Z,0.80
2023-01-02T22:45:41.693Z,0.60
2023-01-02T22:48:18.803Z,0.50
2023-01-02T22:50:46.248Z,0.50
2023-01-02T22:53:27.801Z,0.70
2023-01-02T22:55:54.393Z,0.95
2023-01-02T22:58:21.565Z,0.65
2023-01-02T23:01:00.030Z,0.50
2023-01-02T23:03:31.287Z,0.60
2023-01-02T23:05:57.905Z,0.65
2023-01-02T23:08:24.088Z,0.60
2023-01-02T23:10:50.206Z,0.70
2023-01-02T23:13:16.275Z,0.60
2023-01-02T23:16:03.085Z,0.77
2023-01-02T23:18:53.167Z,0.45
2023-01-02T23:21:26.328Z,1.05
2023-01-02T23:23:53.160Z,0.85
2023-01-02T23:26:20.294Z,0.80
2023-01-02T23:31:33.774Z,0.60
2023-01-02T23:33:59.836Z,0.80
2023-01-02T23:36:25.930Z,0.70
2023-01-02T23:38:52.515Z,0.88
2023-01-02T23:41:18.649Z,0.80
2023-01-02T23:43:45.178Z,0.57
2023-01-02T23:46:12.010Z,0.70
2023-01-02T23:48:38.143Z,0.60
2023-01-02T23:51:04.971Z,1.02
2023-01-02T23:53:31.624Z,0.60
2023-01-02T23:55:57.901Z,0.85
2023-01-02T23:58:24.531Z,0.93
